sensor_id;sensor_type;location;lat;lon;timestamp;P1;durP1;ratioP1;P2;durP2;ratioP2
62693;SDS011;48759;52.544;13.418;2023-03-07T00:01:53;11.70;;;6.27;;
62693;SDS011;48759;52.544;13.418;2023-03-07T00:04:22;13.60;;;7.23;;
62693;SDS011;48759;52.544;13.418;2023-03-07T00:06:48;14.50;;;7.43;;
62693;SDS011;48759;52.544;13.418;2023-03-07T00:09:15;12.80;;;7.50;;
62693;SDS011;48759;52.544;13.418;2023-03-07T00:11:42;9.93;;;6.67;;
62693;SDS011;48759;52.544;13.418;2023-03-07T00:14:10;11.20;;;7.10;;
62693;SDS011;48759;52.544;13.418;2023-03-07T00:16:36;13.20;;;7.43;;
62693;SDS011;48759;52.544;13.418;2023-03-07T00:19:03;9.03;;;6.63;;
62693;SDS011;48759;52.544;13.418;2023-03-07T00:21:32;12.07;;;6.77;;
62693;SDS011;48759;52.544;13.418;2023-03-07T00:23:58;7.93;;;6.63;;
62693;SDS011;48759;52.544;13.418;2023-03-07T00:26:25;11.87;;;6.67;;
62693;SDS011;48759;52.544;13.418;2023-03-07T00:28:53;10.83;;;7.30;;
62693;SDS011;48759;52.544;13.418;2023-03-07T00:31:21;11.40;;;6.97;;
62693;SDS011;48759;52.544;13.418;2023-03-07T00:33:48;8.10;;;6.63;;
62693;SDS011;48759;52.544;13.418;2023-03-07T00:36:16;10.27;;;7.17;;
62693;SDS011;48759;52.544;13.418;2023-03-07T00:38:44;12.13;;;6.23;;
62693;SDS011;48759;52.544;13.418;2023-03-07T00:41:12;9.57;;;6.83;;
62693;SDS011;48759;52.544;13.418;2023-03-07T00:43:41;8.30;;;6.07;;
62693;SDS011;48759;52.544;13.418;2023-03-07T00:46:08;10.03;;;7.07;;
62693;SDS011;48759;52.544;13.418;2023-03-07T00:48:36;10.97;;;7.20;;
62693;SDS011;48759;52.544;13.418;2023-03-07T00:51:05;10.97;;;7.50;;
62693;SDS011;48759;52.544;13.418;2023-03-07T00:53:33;14.00;;;8.57;;
62693;SDS011;48759;52.544;13.418;2023-03-07T00:56:01;13.20;;;8.70;;
62693;SDS011;48759;52.544;13.418;2023-03-07T00:58:30;12.83;;;8.47;;
62693;SDS011;48759;52.544;13.418;2023-03-07T01:00:58;13.83;;;7.83;;
62693;SDS011;48759;52.544;13.418;2023-03-07T01:03:26;14.40;;;7.90;;
62693;SDS011;48759;52.544;13.418;2023-03-07T01:05:54;13.90;;;7.97;;
62693;SDS011;48759;52.544;13.418;2023-03-07T01:08:21;13.70;;;7.97;;
62693;SDS011;48759;52.544;13.418;2023-03-07T01:10:48;12.40;;;9.30;;
62693;SDS011;48759;52.544;13.418;2023-03-07T01:13:15;13.37;;;8.90;;
62693;SDS011;48759;52.544;13.418;2023-03-07T01:15:43;13.70;;;9.03;;
62693;SDS011;48759;52.544;13.418;2023-03-07T01:18:10;12.90;;;9.20;;
62693;SDS011;48759;52.544;13.418;2023-03-07T01:20:38;16.97;;;8.47;;
62693;SDS011;48759;52.544;13.418;2023-03-07T01:23:07;12.50;;;9.10;;
62693;SDS011;48759;52.544;13.418;2023-03-07T01:25:36;14.50;;;9.50;;
62693;SDS011;48759;52.544;13.418;2023-03-07T01:28:04;17.93;;;9.13;;
62693;SDS011;48759;52.544;13.418;2023-03-07T01:30:31;13.87;;;8.87;;
62693;SDS011;48759;52.544;13.418;2023-03-07T01:32:59;14.40;;;9.40;;
62693;SDS011;48759;52.544;13.418;2023-03-07T01:35:27;13.00;;;8.80;;
62693;SDS011;48759;52.544;13.418;2023-03-07T01:37:54;18.33;;;10.37;;
62693;SDS011;48759;52.544;13.418;2023-03-07T01:40:22;14.60;;;9.37;;
62693;SDS011;48759;52.544;13.418;2023-03-07T01:42:49;15.20;;;9.30;;
62693;SDS011;48759;52.544;13.418;2023-03-07T01:48:21;14.10;;;9.07;;
62693;SDS011;48759;52.544;13.418;2023-03-07T01:50:48;20.10;;;10.60;;
62693;SDS011;48759;52.544;13.418;2023-03-07T01:53:15;15.87;;;9.90;;
62693;SDS011;48759;52.544;13.418;2023-03-07T01:55:43;13.43;;;9.23;;
62693;SDS011;48759;52.544;13.418;2023-03-07T01:58:10;15.90;;;10.30;;
62693;SDS011;48759;52.544;13.418;2023-03-07T02:00:39;17.70;;;10.70;;
62693;SDS011;48759;52.544;13.418;2023-03-07T02:03:07;20.20;;;9.60;;
62693;SDS011;48759;52.544;13.418;2023-03-07T02:05:44;16.13;;;10.67;;
62693;SDS011;48759;52.544;13.418;2023-03-07T02:08:15;17.20;;;11.00;;
62693;SDS011;48759;52.544;13.418;2023-03-07T02:10:45;16.93;;;10.50;;
62693;SDS011;48759;52.544;13.418;2023-03-07T02:13:12;17.73;;;11.17;;
62693;SDS011;48759;52.544;13.418;2023-03-07T02:15:39;15.90;;;10.30;;
62693;SDS011;48759;52.544;13.418;2023-03-07T02:18:06;19.00;;;11.47;;
62693;SDS011;48759;52.544;13.418;2023-03-07T02:20:35;20.93;;;11.50;;
62693;SDS011;48759;52.544;13.418;2023-03-07T02:23:07;18.80;;;11.47;;
62693;SDS011;48759;52.544;13.418;2023-03-07T02:25:39;21.23;;;10.70;;
62693;SDS011;48759;52.544;13.418;2023-03-07T02:28:10;25.40;;;13.30;;
62693;SDS011;48759;52.544;13.418;2023-03-07T02:30:51;21.13;;;12.20;;
62693;SDS011;48759;52.544;13.418;2023-03-07T02:33:19;21.63;;;12.43;;
62693;SDS011;48759;52.544;13.418;2023-03-07T02:35:49;21.70;;;14.07;;
62693;SDS011;48759;52.544;13.418;2023-03-07T02:38:19;25.80;;;15.30;;
62693;SDS011;48759;52.544;13.418;2023-03-07T02:40:46;22.43;;;12.70;;
62693;SDS011;48759;52.544;13.418;2023-03-07T02:43:15;26.97;;;15.33;;
62693;SDS011;48759;52.544;13.418;2023-03-07T02:45:42;25.00;;;13.70;;
62693;SDS011;48759;52.544;13.418;2023-03-07T02:48:08;26.27;;;15.43;;
62693;SDS011;48759;52.544;13.418;2023-03-07T02:50:35;26.33;;;14.57;;
62693;SDS011;48759;52.544;13.418;2023-03-07T02:53:02;27.37;;;14.77;;
62693;SDS011;48759;52.544;13.418;2023-03-07T02:55:29;23.93;;;14.00;;
62693;SDS011;48759;52.544;13.418;2023-03-07T02:57:56;25.47;;;15.20;;
62693;SDS011;48759;52.544;13.418;2023-03-07T03:00:24;27.97;;;15.27;;
62693;SDS011;48759;52.544;13.418;2023-03-07T03:02:51;27.23;;;15.93;;
62693;SDS011;48759;52.544;13.418;2023-03-07T03:05:18;24.90;;;15.20;;
62693;SDS011;48759;52.544;13.418;2023-03-07T03:07:44;27.07;;;15.47;;
62693;SDS011;48759;52.544;13.418;2023-03-07T03:10:11;26.50;;;15.77;;
62693;SDS011;48759;52.544;13.418;2023-03-07T03:12:38;26.30;;;15.67;;
62693;SDS011;48759;52.544;13.418;2023-03-07T03:15:05;27.47;;;15.80;;
62693;SDS011;48759;52.544;13.418;2023-03-07T03:17:34;30.47;;;17.53;;
62693;SDS011;48759;52.544;13.418;2023-03-07T03:20:01;26.70;;;15.60;;
62693;SDS011;48759;52.544;13.418;2023-03-07T03:22:31;29.50;;;15.40;;
62693;SDS011;48759;52.544;13.418;2023-03-07T03:24:58;27.23;;;15.73;;
62693;SDS011;48759;52.544;13.418;2023-03-07T03:27:25;27.50;;;17.03;;
62693;SDS011;48759;52.544;13.418;2023-03-07T03:29:52;28.77;;;15.63;;
62693;SDS011;48759;52.544;13.418;2023-03-07T03:32:19;26.70;;;14.57;;
62693;SDS011;48759;52.544;13.418;2023-03-07T03:34:47;28.97;;;15.70;;
62693;SDS011;48759;52.544;13.418;2023-03-07T03:37:14;27.93;;;15.20;;
62693;SDS011;48759;52.544;13.418;2023-03-07T03:39:40;29.87;;;15.63;;
62693;SDS011;48759;52.544;13.418;2023-03-07T03:42:07;30.73;;;16.83;;
62693;SDS011;48759;52.544;13.418;2023-03-07T03:44:33;32.03;;;17.50;;
62693;SDS011;48759;52.544;13.418;2023-03-07T03:47:00;31.07;;;16.77;;
62693;SDS011;48759;52.544;13.418;2023-03-07T03:49:27;26.63;;;14.50;;
62693;SDS011;48759;52.544;13.418;2023-03-07T03:51:55;31.07;;;17.07;;
62693;SDS011;48759;52.544;13.418;2023-03-07T03:54:22;28.90;;;15.57;;
62693;SDS011;48759;52.544;13.418;2023-03-07T03:56:48;30.87;;;15.90;;
62693;SDS011;48759;52.544;13.418;2023-03-07T03:59:15;27.60;;;14.67;;
62693;SDS011;48759;52.544;13.418;2023-03-07T04:01:41;28.00;;;14.33;;
62693;SDS011;48759;52.544;13.418;2023-03-07T04:04:08;26.40;;;15.23;;
62693;SDS011;48759;52.544;13.418;2023-03-07T04:06:35;28.23;;;16.07;;
62693;SDS011;48759;52.544;13.418;2023-03-07T04:09:03;28.80;;;15.23;;
62693;SDS011;48759;52.544;13.418;2023-03-07T04:11:30;27.30;;;15.77;;
62693;SDS011;48759;52.544;13.418;2023-03-07T04:13:57;24.83;;;14.60;;
62693;SDS011;48759;52.544;13.418;2023-03-07T04:16:24;25.33;;;14.80;;
62693;SDS011;48759;52.544;13.418;2023-03-07T04:18:51;28.80;;;15.37;;
62693;SDS011;48759;52.544;13.418;2023-03-07T04:21:18;23.33;;;14.17;;
62693;SDS011;48759;52.544;13.418;2023-03-07T04:23:45;31.23;;;16.57;;
62693;SDS011;48759;52.544;13.418;2023-03-07T04:26:15;25.23;;;14.60;;
62693;SDS011;48759;52.544;13.418;2023-03-07T04:28:42;24.20;;;14.57;;
62693;SDS011;48759;52.544;13.418;2023-03-07T04:31:09;30.17;;;14.90;;
62693;SDS011;48759;52.544;13.418;2023-03-07T04:33:37;26.57;;;14.97;;
62693;SDS011;48759;52.544;13.418;2023-03-07T04:36:03;27.93;;;15.50;;
62693;SDS011;48759;52.544;13.418;2023-03-07T04:38:30;26.83;;;14.07;;
62693;SDS011;48759;52.544;13.418;2023-03-07T04:40:57;28.57;;;16.23;;
62693;SDS011;48759;52.544;13.418;2023-03-07T04:43:25;27.07;;;14.30;;
62693;SDS011;48759;52.544;13.418;2023-03-07T04:45:52;27.50;;;15.47;;
62693;SDS011;48759;52.544;13.418;2023-03-07T04:48:19;27.50;;;15.00;;
62693;SDS011;48759;52.544;13.418;2023-03-07T04:50:47;29.23;;;13.90;;
62693;SDS011;48759;52.544;13.418;2023-03-07T04:53:14;31.50;;;14.63;;
62693;SDS011;48759;52.544;13.418;2023-03-07T04:55:41;29.67;;;16.50;;
62693;SDS011;48759;52.544;13.418;2023-03-07T04:58:07;33.67;;;15.17;;
62693;SDS011;48759;52.544;13.418;2023-03-07T05:00:38;31.17;;;15.13;;
62693;SDS011;48759;52.544;13.418;2023-03-07T05:03:05;26.93;;;14.73;;
62693;SDS011;48759;52.544;13.418;2023-03-07T05:05:32;32.30;;;15.33;;
62693;SDS011;48759;52.544;13.418;2023-03-07T05:07:58;26.07;;;15.10;;
62693;SDS011;48759;52.544;13.418;2023-03-07T05:10:25;30.50;;;16.97;;
62693;SDS011;48759;52.544;13.418;2023-03-07T05:12:52;26.20;;;14.47;;
62693;SDS011;48759;52.544;13.418;2023-03-07T05:15:19;29.73;;;16.33;;
62693;SDS011;48759;52.544;13.418;2023-03-07T05:17:47;31.93;;;15.70;;
62693;SDS011;48759;52.544;13.418;2023-03-07T05:20:13;27.57;;;15.33;;
62693;SDS011;48759;52.544;13.418;2023-03-07T05:22:40;28.90;;;15.83;;
62693;SDS011;48759;52.544;13.418;2023-03-07T05:25:07;27.97;;;15.80;;
62693;SDS011;48759;52.544;13.418;2023-03-07T05:27:34;32.00;;;16.50;;
62693;SDS011;48759;52.544;13.418;2023-03-07T05:30:01;28.13;;;15.03;;
62693;SDS011;48759;52.544;13.418;2023-03-07T05:32:27;32.97;;;16.90;;
62693;SDS011;48759;52.544;13.418;2023-03-07T05:34:56;33.00;;;17.17;;
62693;SDS011;48759;52.544;13.418;2023-03-07T05:37:23;30.00;;;16.77;;
62693;SDS011;48759;52.544;13.418;2023-03-07T05:39:49;33.33;;;17.43;;
62693;SDS011;48759;52.544;13.418;2023-03-07T05:42:16;28.67;;;15.00;;
62693;SDS011;48759;52.544;13.418;2023-03-07T05:44:43;28.40;;;16.03;;
62693;SDS011;48759;52.544;13.418;2023-03-07T05:47:09;30.70;;;16.37;;
62693;SDS011;48759;52.544;13.418;2023-03-07T05:49:36;30.50;;;15.33;;
62693;SDS011;48759;52.544;13.418;2023-03-07T05:52:04;30.40;;;17.07;;
62693;SDS011;48759;52.544;13.418;2023-03-07T05:54:31;29.27;;;15.50;;
62693;SDS011;48759;52.544;13.418;2023-03-07T05:56:58;32.47;;;15.20;;
62693;SDS011;48759;52.544;13.418;2023-03-07T05:59:24;29.73;;;16.67;;
62693;SDS011;48759;52.544;13.418;2023-03-07T06:01:51;28.87;;;15.60;;
62693;SDS011;48759;52.544;13.418;2023-03-07T06:04:18;28.47;;;16.10;;
62693;SDS011;48759;52.544;13.418;2023-03-07T06:06:44;26.57;;;14.67;;
62693;SDS011;48759;52.544;13.418;2023-03-07T06:09:12;29.67;;;16.00;;
62693;SDS011;48759;52.544;13.418;2023-03-07T06:11:39;26.13;;;15.10;;
62693;SDS011;48759;52.544;13.418;2023-03-07T06:14:05;28.10;;;15.40;;
62693;SDS011;48759;52.544;13.418;2023-03-07T06:16:32;26.27;;;14.20;;
62693;SDS011;48759;52.544;13.418;2023-03-07T06:18:59;25.40;;;14.73;;
62693;SDS011;48759;52.544;13.418;2023-03-07T06:21:25;26.90;;;15.70;;
62693;SDS011;48759;52.544;13.418;2023-03-07T06:23:52;26.00;;;15.63;;
62693;SDS011;48759;52.544;13.418;2023-03-07T06:26:20;28.87;;;14.97;;
62693;SDS011;48759;52.544;13.418;2023-03-07T06:28:47;29.20;;;15.17;;
62693;SDS011;48759;52.544;13.418;2023-03-07T06:31:14;28.37;;;14.87;;
62693;SDS011;48759;52.544;13.418;2023-03-07T06:33:42;30.77;;;16.53;;
62693;SDS011;48759;52.544;13.418;2023-03-07T06:36:10;28.47;;;16.03;;
62693;SDS011;48759;52.544;13.418;2023-03-07T06:38:38;23.83;;;14.57;;
62693;SDS011;48759;52.544;13.418;2023-03-07T06:41:05;23.67;;;14.60;;
62693;SDS011;48759;52.544;13.418;2023-03-07T06:43:33;27.50;;;15.07;;
62693;SDS011;48759;52.544;13.418;2023-03-07T06:46:00;32.23;;;14.90;;
62693;SDS011;48759;52.544;13.418;2023-03-07T06:48:27;25.83;;;15.03;;
62693;SDS011;48759;52.544;13.418;2023-03-07T06:50:54;27.40;;;15.37;;
62693;SDS011;48759;52.544;13.418;2023-03-07T06:53:21;29.73;;;15.90;;
62693;SDS011;48759;52.544;13.418;2023-03-07T06:55:48;26.23;;;13.97;;
62693;SDS011;48759;52.544;13.418;2023-03-07T06:58:15;25.27;;;14.93;;
62693;SDS011;48759;52.544;13.418;2023-03-07T07:00:44;25.77;;;14.43;;
62693;SDS011;48759;52.544;13.418;2023-03-07T07:03:10;31.47;;;16.00;;
62693;SDS011;48759;52.544;13.418;2023-03-07T07:05:38;26.33;;;15.50;;
62693;SDS011;48759;52.544;13.418;2023-03-07T07:08:04;24.80;;;14.80;;
62693;SDS011;48759;52.544;13.418;2023-03-07T07:10:34;22.20;;;13.23;;
62693;SDS011;48759;52.544;13.418;2023-03-07T07:13:06;24.90;;;14.10;;
62693;SDS011;48759;52.544;13.418;2023-03-07T07:15:36;26.27;;;13.67;;
62693;SDS011;48759;52.544;13.418;2023-03-07T07:18:04;25.33;;;13.53;;
62693;SDS011;48759;52.544;13.418;2023-03-07T07:20:31;21.90;;;12.87;;
62693;SDS011;48759;52.544;13.418;2023-03-07T07:23:01;21.10;;;12.80;;
62693;SDS011;48759;52.544;13.418;2023-03-07T07:25:27;23.13;;;14.93;;
62693;SDS011;48759;52.544;13.418;2023-03-07T07:27:54;23.00;;;12.33;;
62693;SDS011;48759;52.544;13.418;2023-03-07T07:30:21;20.40;;;11.77;;
62693;SDS011;48759;52.544;13.418;2023-03-07T07:32:51;23.70;;;12.53;;
62693;SDS011;48759;52.544;13.418;2023-03-07T07:35:19;19.93;;;12.60;;
62693;SDS011;48759;52.544;13.418;2023-03-07T07:37:46;18.10;;;11.50;;
62693;SDS011;48759;52.544;13.418;2023-03-07T07:40:13;22.60;;;13.50;;
62693;SDS011;48759;52.544;13.418;2023-03-07T07:42:40;17.60;;;10.70;;
62693;SDS011;48759;52.544;13.418;2023-03-07T07:45:07;24.20;;;13.17;;
62693;SDS011;48759;52.544;13.418;2023-03-07T07:47:34;22.37;;;12.50;;
62693;SDS011;48759;52.544;13.418;2023-03-07T07:50:01;19.40;;;12.07;;
62693;SDS011;48759;52.544;13.418;2023-03-07T07:52:30;19.57;;;11.70;;
62693;SDS011;48759;52.544;13.418;2023-03-07T07:54:56;19.70;;;12.00;;
62693;SDS011;48759;52.544;13.418;2023-03-07T07:57:23;22.30;;;12.90;;
62693;SDS011;48759;52.544;13.418;2023-03-07T07:59:50;19.17;;;11.70;;
62693;SDS011;48759;52.544;13.418;2023-03-07T08:02:17;20.37;;;12.33;;
62693;SDS011;48759;52.544;13.418;2023-03-07T08:04:44;19.60;;;12.70;;
62693;SDS011;48759;52.544;13.418;2023-03-07T08:07:11;19.37;;;11.07;;
62693;SDS011;48759;52.544;13.418;2023-03-07T08:09:40;18.50;;;11.03;;
62693;SDS011;48759;52.544;13.418;2023-03-07T08:12:07;20.07;;;12.40;;
62693;SDS011;48759;52.544;13.418;2023-03-07T08:14:36;19.30;;;11.53;;
62693;SDS011;48759;52.544;13.418;2023-03-07T08:17:05;20.20;;;12.13;;
62693;SDS011;48759;52.544;13.418;2023-03-07T08:19:32;20.77;;;10.90;;
62693;SDS011;48759;52.544;13.418;2023-03-07T08:21:59;19.20;;;12.20;;
62693;SDS011;48759;52.544;13.418;2023-03-07T08:24:26;17.70;;;10.00;;
62693;SDS011;48759;52.544;13.418;2023-03-07T08:26:54;16.60;;;10.50;;
62693;SDS011;48759;52.544;13.418;2023-03-07T08:29:21;20.40;;;10.90;;
62693;SDS011;48759;52.544;13.418;2023-03-07T08:31:47;19.30;;;11.07;;
62693;SDS011;48759;52.544;13.418;2023-03-07T08:34:16;19.20;;;10.80;;
62693;SDS011;48759;52.544;13.418;2023-03-07T08:36:42;16.60;;;10.30;;
62693;SDS011;48759;52.544;13.418;2023-03-07T08:39:09;20.10;;;12.20;;
62693;SDS011;48759;52.544;13.418;2023-03-07T08:41:36;23.00;;;12.97;;
62693;SDS011;48759;52.544;13.418;2023-03-07T08:44:04;19.07;;;11.20;;
62693;SDS011;48759;52.544;13.418;2023-03-07T08:46:31;20.40;;;10.80;;
62693;SDS011;48759;52.544;13.418;2023-03-07T08:48:57;20.03;;;11.53;;
62693;SDS011;48759;52.544;13.418;2023-03-07T08:51:24;17.93;;;11.07;;
62693;SDS011;48759;52.544;13.418;2023-03-07T08:53:51;19.67;;;12.43;;
62693;SDS011;48759;52.544;13.418;2023-03-07T08:56:18;19.93;;;10.70;;
62693;SDS011;48759;52.544;13.418;2023-03-07T08:58:46;18.37;;;11.40;;
62693;SDS011;48759;52.544;13.418;2023-03-07T09:01:14;15.10;;;10.73;;
62693;SDS011;48759;52.544;13.418;2023-03-07T09:03:41;18.90;;;11.00;;
62693;SDS011;48759;52.544;13.418;2023-03-07T09:06:12;18.00;;;10.50;;
62693;SDS011;48759;52.544;13.418;2023-03-07T09:08:41;19.40;;;9.70;;
62693;SDS011;48759;52.544;13.418;2023-03-07T09:11:09;17.27;;;10.37;;
62693;SDS011;48759;52.544;13.418;2023-03-07T09:13:36;14.93;;;9.60;;
62693;SDS011;48759;52.544;13.418;2023-03-07T09:16:03;20.77;;;10.00;;
62693;SDS011;48759;52.544;13.418;2023-03-07T09:21:00;18.40;;;9.80;;
62693;SDS011;48759;52.544;13.418;2023-03-07T09:23:28;14.13;;;9.90;;
62693;SDS011;48759;52.544;13.418;2023-03-07T09:25:57;13.00;;;9.17;;
62693;SDS011;48759;52.544;13.418;2023-03-07T09:28:24;12.70;;;7.90;;
62693;SDS011;48759;52.544;13.418;2023-03-07T09:30:50;14.43;;;9.53;;
62693;SDS011;48759;52.544;13.418;2023-03-07T09:33:17;18.47;;;10.33;;
62693;SDS011;48759;52.544;13.418;2023-03-07T09:35:45;13.93;;;9.30;;
62693;SDS011;48759;52.544;13.418;2023-03-07T09:38:12;14.93;;;10.40;;
62693;SDS011;48759;52.544;13.418;2023-03-07T09:40:39;12.93;;;8.90;;
62693;SDS011;48759;52.544;13.418;2023-03-07T09:43:07;11.83;;;8.30;;
62693;SDS011;48759;52.544;13.418;2023-03-07T09:45:45;12.07;;;8.13;;
62693;SDS011;48759;52.544;13.418;2023-03-07T09:48:29;14.93;;;9.03;;
62693;SDS011;48759;52.544;13.418;2023-03-07T09:51:14;14.03;;;8.03;;
62693;SDS011;48759;52.544;13.418;2023-03-07T09:53:44;12.50;;;8.60;;
62693;SDS011;48759;52.544;13.418;2023-03-07T09:56:15;12.87;;;8.40;;
62693;SDS011;48759;52.544;13.418;2023-03-07T09:58:49;11.20;;;8.10;;
62693;SDS011;48759;52.544;13.418;2023-03-07T10:01:20;9.60;;;6.57;;
62693;SDS011;48759;52.544;13.418;2023-03-07T10:03:54;10.70;;;7.50;;
62693;SDS011;48759;52.544;13.418;2023-03-07T10:06:28;9.30;;;6.33;;
62693;SDS011;48759;52.544;13.418;2023-03-07T10:08:58;9.87;;;6.57;;
62693;SDS011;48759;52.544;13.418;2023-03-07T10:11:31;9.73;;;6.73;;
62693;SDS011;48759;52.544;13.418;2023-03-07T10:17:10;9.03;;;6.93;;
62693;SDS011;48759;52.544;13.418;2023-03-07T10:19:47;10.63;;;6.90;;
62693;SDS011;48759;52.544;13.418;2023-03-07T10:22:20;8.87;;;6.27;;
62693;SDS011;48759;52.544;13.418;2023-03-07T10:24:56;6.87;;;5.57;;
62693;SDS011;48759;52.544;13.418;2023-03-07T10:27:33;9.03;;;6.63;;
62693;SDS011;48759;52.544;13.418;2023-03-07T10:30:00;9.77;;;6.67;;
62693;SDS011;48759;52.544;13.418;2023-03-07T10:32:38;11.90;;;6.03;;
62693;SDS011;48759;52.544;13.418;2023-03-07T10:35:12;5.87;;;5.23;;
62693;SDS011;48759;52.544;13.418;2023-03-07T10:37:44;7.53;;;5.63;;
62693;SDS011;48759;52.544;13.418;2023-03-07T10:40:22;5.43;;;4.20;;
62693;SDS011;48759;52.544;13.418;2023-03-07T10:42:51;5.80;;;4.87;;
62693;SDS011;48759;52.544;13.418;2023-03-07T10:45:18;5.93;;;4.50;;
62693;SDS011;48759;52.544;13.418;2023-03-07T10:47:45;3.53;;;3.10;;
62693;SDS011;48759;52.544;13.418;2023-03-07T10:50:16;4.63;;;2.80;;
62693;SDS011;48759;52.544;13.418;2023-03-07T10:52:52;4.40;;;2.33;;
62693;SDS011;48759;52.544;13.418;2023-03-07T10:55:34;2.00;;;1.80;;
62693;SDS011;48759;52.544;13.418;2023-03-07T10:58:12;2.50;;;2.10;;
62693;SDS011;48759;52.544;13.418;2023-03-07T11:00:42;4.07;;;2.23;;
62693;SDS011;48759;52.544;13.418;2023-03-07T11:03:19;4.60;;;2.30;;
62693;SDS011;48759;52.544;13.418;2023-03-07T11:05:49;2.70;;;2.33;;
62693;SDS011;48759;52.544;13.418;2023-03-07T11:08:21;2.97;;;2.70;;
62693;SDS011;48759;52.544;13.418;2023-03-07T11:10:52;3.53;;;3.23;;
62693;SDS011;48759;52.544;13.418;2023-03-07T11:13:20;3.20;;;2.70;;
62693;SDS011;48759;52.544;13.418;2023-03-07T11:15:47;3.33;;;2.87;;
62693;SDS011;48759;52.544;13.418;2023-03-07T11:18:24;5.70;;;2.80;;
62693;SDS011;48759;52.544;13.418;2023-03-07T11:20:56;3.03;;;2.73;;
62693;SDS011;48759;52.544;13.418;2023-03-07T11:23:25;3.00;;;2.30;;
62693;SDS011;48759;52.544;13.418;2023-03-07T11:25:55;3.20;;;2.83;;
62693;SDS011;48759;52.544;13.418;2023-03-07T11:28:24;4.00;;;2.93;;
62693;SDS011;48759;52.544;13.418;2023-03-07T11:30:56;4.10;;;3.70;;
62693;SDS011;48759;52.544;13.418;2023-03-07T11:33:35;3.90;;;2.60;;
62693;SDS011;48759;52.544;13.418;2023-03-07T11:36:12;3.40;;;2.87;;
62693;SDS011;48759;52.544;13.418;2023-03-07T11:38:48;4.00;;;2.17;;
62693;SDS011;48759;52.544;13.418;2023-03-07T11:41:23;3.13;;;2.77;;
62693;SDS011;48759;52.544;13.418;2023-03-07T11:43:57;3.47;;;2.40;;
62693;SDS011;48759;52.544;13.418;2023-03-07T11:46:33;4.27;;;2.33;;
62693;SDS011;48759;52.544;13.418;2023-03-07T11:49:12;3.60;;;2.50;;
62693;SDS011;48759;52.544;13.418;2023-03-07T11:51:49;4.90;;;2.83;;
62693;SDS011;48759;52.544;13.418;2023-03-07T11:54:28;3.03;;;2.37;;
62693;SDS011;48759;52.544;13.418;2023-03-07T11:57:06;3.90;;;2.43;;
62693;SDS011;48759;52.544;13.418;2023-03-07T12:02:53;2.83;;;2.07;;
62693;SDS011;48759;52.544;13.418;2023-03-07T12:05:44;2.53;;;1.70;;
62693;SDS011;48759;52.544;13.418;2023-03-07T12:08:28;2.60;;;2.40;;
62693;SDS011;48759;52.544;13.418;2023-03-07T12:11:10;4.00;;;2.53;;
62693;SDS011;48759;52.544;13.418;2023-03-07T12:13:53;2.40;;;2.10;;
62693;SDS011;48759;52.544;13.418;2023-03-07T12:16:26;2.23;;;2.03;;
62693;SDS011;48759;52.544;13.418;2023-03-07T12:19:11;2.40;;;1.90;;
62693;SDS011;48759;52.544;13.418;2023-03-07T12:22:07;2.90;;;2.30;;
62693;SDS011;48759;52.544;13.418;2023-03-07T12:24:50;1.87;;;1.70;;
62693;SDS011;48759;52.544;13.418;2023-03-07T12:27:29;4.30;;;1.90;;
62693;SDS011;48759;52.544;13.418;2023-03-07T12:30:01;2.47;;;2.00;;
62693;SDS011;48759;52.544;13.418;2023-03-07T12:32:32;1.83;;;1.73;;
62693;SDS011;48759;52.544;13.418;2023-03-07T12:35:03;1.70;;;1.60;;
62693;SDS011;48759;52.544;13.418;2023-03-07T12:37:39;4.10;;;1.63;;
62693;SDS011;48759;52.544;13.418;2023-03-07T12:40:12;4.10;;;1.40;;
62693;SDS011;48759;52.544;13.418;2023-03-07T12:42:49;1.50;;;1.40;;
62693;SDS011;48759;52.544;13.418;2023-03-07T12:45:22;1.90;;;1.33;;
62693;SDS011;48759;52.544;13.418;2023-03-07T12:47:52;3.90;;;1.80;;
62693;SDS011;48759;52.544;13.418;2023-03-07T12:50:26;1.70;;;1.60;;
62693;SDS011;48759;52.544;13.418;2023-03-07T12:52:59;1.60;;;1.50;;
62693;SDS011;48759;52.544;13.418;2023-03-07T12:55:33;1.67;;;1.50;;
62693;SDS011;48759;52.544;13.418;2023-03-07T12:58:05;2.30;;;1.37;;
62693;SDS011;48759;52.544;13.418;2023-03-07T13:00:34;8.97;;;1.90;;
62693;SDS011;48759;52.544;13.418;2023-03-07T13:03:07;9.70;;;1.73;;
62693;SDS011;48759;52.544;13.418;2023-03-07T13:05:41;1.60;;;1.50;;
62693;SDS011;48759;52.544;13.418;2023-03-07T13:08:09;1.57;;;1.43;;
62693;SDS011;48759;52.544;13.418;2023-03-07T13:10:44;4.20;;;1.90;;
62693;SDS011;48759;52.544;13.418;2023-03-07T13:16:30;2.33;;;2.13;;
62693;SDS011;48759;52.544;13.418;2023-03-07T13:21:59;4.80;;;1.87;;
62693;SDS011;48759;52.544;13.418;2023-03-07T13:24:33;3.87;;;1.77;;
62693;SDS011;48759;52.544;13.418;2023-03-07T13:27:01;2.90;;;2.70;;
62693;SDS011;48759;52.544;13.418;2023-03-07T13:32:55;2.00;;;1.90;;
62693;SDS011;48759;52.544;13.418;2023-03-07T13:38:32;2.30;;;1.67;;
62693;SDS011;48759;52.544;13.418;2023-03-07T13:41:08;3.77;;;1.70;;
62693;SDS011;48759;52.544;13.418;2023-03-07T13:46:28;1.83;;;1.50;;
62693;SDS011;48759;52.544;13.418;2023-03-07T13:49:11;1.90;;;1.37;;
62693;SDS011;48759;52.544;13.418;2023-03-07T13:52:22;2.97;;;2.73;;
62693;SDS011;48759;52.544;13.418;2023-03-07T13:54:58;1.80;;;1.70;;
62693;SDS011;48759;52.544;13.418;2023-03-07T13:57:28;2.23;;;1.87;;
62693;SDS011;48759;52.544;13.418;2023-03-07T14:00:00;3.10;;;2.90;;
62693;SDS011;48759;52.544;13.418;2023-03-07T14:02:30;6.40;;;5.50;;
62693;SDS011;48759;52.544;13.418;2023-03-07T14:04:59;4.93;;;2.63;;
62693;SDS011;48759;52.544;13.418;2023-03-07T14:07:28;9.23;;;8.23;;
62693;SDS011;48759;52.544;13.418;2023-03-07T14:10:01;5.93;;;4.40;;
62693;SDS011;48759;52.544;13.418;2023-03-07T14:12:35;3.37;;;3.07;;
62693;SDS011;48759;52.544;13.418;2023-03-07T14:15:17;4.47;;;2.20;;
62693;SDS011;48759;52.544;13.418;2023-03-07T14:17:57;2.00;;;1.80;;
62693;SDS011;48759;52.544;13.418;2023-03-07T14:20:41;1.77;;;1.67;;
62693;SDS011;48759;52.544;13.418;2023-03-07T14:23:25;2.00;;;1.90;;
62693;SDS011;48759;52.544;13.418;2023-03-07T14:26:11;1.83;;;1.60;;
62693;SDS011;48759;52.544;13.418;2023-03-07T14:28:46;1.60;;;1.50;;
62693;SDS011;48759;52.544;13.418;2023-03-07T14:31:26;2.53;;;1.50;;
62693;SDS011;48759;52.544;13.418;2023-03-07T14:33:56;1.80;;;1.70;;
62693;SDS011;48759;52.544;13.418;2023-03-07T14:36:23;2.27;;;1.97;;
62693;SDS011;48759;52.544;13.418;2023-03-07T14:39:02;2.97;;;1.87;;
62693;SDS011;48759;52.544;13.418;2023-03-07T14:41:34;3.73;;;2.30;;
62693;SDS011;48759;52.544;13.418;2023-03-07T14:44:20;2.20;;;2.00;;
62693;SDS011;48759;52.544;13.418;2023-03-07T14:47:17;2.60;;;2.10;;
62693;SDS011;48759;52.544;13.418;2023-03-07T14:49:57;2.80;;;2.07;;
62693;SDS011;48759;52.544;13.418;2023-03-07T14:52:36;1.53;;;1.53;;
62693;SDS011;48759;52.544;13.418;2023-03-07T14:55:10;2.23;;;1.80;;
62693;SDS011;48759;52.544;13.418;2023-03-07T14:57:42;1.67;;;1.57;;
62693;SDS011;48759;52.544;13.418;2023-03-07T15:00:14;6.07;;;1.80;;
62693;SDS011;48759;52.544;13.418;2023-03-07T15:02:49;2.33;;;2.20;;